createdAt,value
2022-08-18T00:02:02.815Z,6.65
2022-08-18T00:04:35.563Z,7.03
2022-08-18T00:07:05.628Z,6.82
2022-08-18T00:09:34.813Z,6.25
2022-08-18T00:12:03.842Z,6.90
2022-08-18T00:14:31.369Z,6.30
2022-08-18T00:16:59.024Z,6.60
2022-08-18T00:19:47.014Z,6.78
2022-08-18T00:22:16.049Z,6.90
2022-08-18T00:24:47.695Z,6.55
2022-08-18T00:27:22.947Z,6.32
2022-08-18T00:29:51.901Z,6.55
2022-08-18T00:32:24.649Z,7.37
2022-08-18T00:34:52.859Z,6.72
2022-08-18T00:37:21.188Z,7.03
2022-08-18T00:39:51.523Z,6.72
2022-08-18T00:42:30.573Z,6.72
2022-08-18T00:45:02.670Z,7.15
2022-08-18T00:47:41.177Z,6.95
2022-08-18T00:50:24.498Z,7.53
2022-08-18T00:53:01.028Z,7.45
2022-08-18T00:55:29.339Z,7.22
2022-08-18T00:58:01.860Z,6.78
2022-08-18T01:00:29.627Z,7.72
2022-08-18T01:02:58.685Z,7.60
2022-08-18T01:05:30.614Z,7.53
2022-08-18T01:07:58.813Z,9.95
2022-08-18T01:10:26.214Z,8.55
2022-08-18T01:12:54.560Z,8.38
2022-08-18T01:15:29.164Z,8.88
2022-08-18T01:18:22.297Z,9.93
2022-08-18T01:21:14.642Z,8.85
2022-08-18T01:23:42.087Z,11.82
2022-08-18T01:26:10.069Z,10.63
2022-08-18T01:28:40.250Z,10.95
2022-08-18T01:31:09.108Z,8.85
2022-08-18T01:33:39.038Z,10.00
2022-08-18T01:36:18.065Z,10.13
2022-08-18T01:38:47.784Z,9.88
2022-08-18T01:41:26.677Z,9.93
2022-08-18T01:43:59.073Z,10.85
2022-08-18T01:46:28.279Z,10.00
2022-08-18T01:48:55.887Z,10.20
2022-08-18T01:51:38.913Z,10.48
2022-08-18T01:54:11.245Z,9.90
2022-08-18T01:56:38.949Z,10.15
2022-08-18T01:59:14.049Z,10.68
2022-08-18T02:01:53.085Z,9.52
2022-08-18T02:04:40.599Z,9.55
2022-08-18T02:07:09.626Z,8.48
2022-08-18T02:09:38.095Z,8.80
2022-08-18T02:12:07.068Z,8.43
2022-08-18T02:14:35.655Z,9.32
2022-08-18T02:17:04.166Z,10.00
2022-08-18T02:19:41.785Z,9.10
2022-08-18T02:22:10.382Z,10.10
2022-08-18T02:24:37.861Z,9.93
2022-08-18T02:27:05.710Z,9.50
2022-08-18T02:29:33.363Z,9.35
2022-08-18T02:32:00.730Z,10.02
2022-08-18T02:34:28.102Z,9.02
2022-08-18T02:36:55.983Z,8.82
2022-08-18T02:39:23.390Z,9.18
2022-08-18T02:41:51.564Z,9.18
2022-08-18T02:44:19.437Z,8.73
2022-08-18T02:46:46.923Z,9.70
2022-08-18T02:49:14.364Z,10.30
2022-08-18T02:51:41.998Z,8.98
2022-08-18T02:54:11.516Z,9.52
2022-08-18T02:56:41.904Z,9.25
2022-08-18T02:59:12.466Z,9.73
2022-08-18T03:01:41.782Z,9.70
2022-08-18T03:04:10.946Z,9.70
2022-08-18T03:06:39.161Z,9.80
2022-08-18T03:09:07.279Z,9.93
2022-08-18T03:11:35.074Z,9.60
2022-08-18T03:14:02.967Z,9.85
2022-08-18T03:16:32.820Z,10.63
2022-08-18T03:19:01.172Z,11.07
2022-08-18T03:21:30.248Z,10.80
2022-08-18T03:24:00.687Z,10.95
2022-08-18T03:26:29.961Z,9.50
2022-08-18T03:28:58.003Z,10.20
2022-08-18T03:31:28.021Z,10.88
2022-08-18T03:33:59.313Z,11.05
2022-08-18T03:36:29.430Z,10.48
2022-08-18T03:38:57.268Z,11.30
2022-08-18T03:41:58.734Z,10.65
2022-08-18T03:44:14.408Z,10.73
2022-08-18T03:46:43.134Z,10.30
2022-08-18T03:49:10.916Z,10.93
2022-08-18T03:51:39.015Z,11.30
2022-08-18T03:54:06.410Z,10.95
2022-08-18T03:56:38.075Z,11.07
2022-08-18T03:59:07.903Z,12.00
2022-08-18T04:01:40.902Z,11.35
2022-08-18T04:04:11.289Z,10.75
2022-08-18T04:06:42.034Z,10.13
2022-08-18T04:09:11.672Z,10.73
2022-08-18T04:11:39.751Z,10.93
2022-08-18T04:14:07.120Z,10.88
2022-08-18T04:16:38.392Z,11.30
2022-08-18T04:19:05.918Z,10.77
2022-08-18T04:21:34.700Z,11.60
2022-08-18T04:24:05.093Z,11.40
2022-08-18T04:26:33.099Z,12.48
2022-08-18T04:29:03.162Z,12.30
2022-08-18T04:31:31.021Z,11.05
2022-08-18T04:33:59.103Z,12.15
2022-08-18T04:36:26.662Z,11.98
2022-08-18T04:38:56.378Z,11.60
2022-08-18T04:41:27.823Z,11.05
2022-08-18T04:43:59.509Z,11.75
2022-08-18T04:46:27.250Z,12.30
2022-08-18T04:48:59.163Z,11.88
2022-08-18T04:52:22.474Z,10.70
2022-08-18T04:54:16.521Z,11.48
2022-08-18T04:56:44.170Z,12.05
2022-08-18T04:59:12.582Z,11.05
2022-08-18T05:01:47.834Z,11.68
2022-08-18T05:04:16.601Z,12.27
2022-08-18T05:06:44.602Z,10.77
2022-08-18T05:09:12.928Z,13.05
2022-08-18T05:11:51.075Z,12.10
2022-08-18T05:14:18.544Z,11.45
2022-08-18T05:16:47.838Z,11.57
2022-08-18T05:19:19.854Z,11.15
2022-08-18T05:21:50.898Z,12.02
2022-08-18T05:24:20.130Z,11.20
2022-08-18T05:26:51.255Z,11.73
2022-08-18T05:29:21.986Z,11.30
2022-08-18T05:31:51.810Z,11.50
2022-08-18T05:34:21.281Z,10.82
2022-08-18T05:36:48.609Z,11.70
2022-08-18T05:39:21.573Z,12.40
2022-08-18T05:42:09.426Z,11.60
2022-08-18T05:44:41.685Z,11.52
2022-08-18T05:47:12.199Z,12.13
2022-08-18T05:49:39.659Z,11.48
2022-08-18T05:52:08.458Z,12.00
2022-08-18T05:55:00.279Z,11.40
2022-08-18T05:57:28.811Z,10.55
2022-08-18T05:59:56.453Z,12.93
2022-08-18T06:02:30.366Z,12.13
2022-08-18T06:05:04.242Z,12.10
2022-08-18T06:07:50.412Z,12.20
2022-08-18T06:10:19.146Z,12.15
2022-08-18T06:12:49.404Z,11.12
2022-08-18T06:15:27.643Z,11.85
2022-08-18T06:18:21.594Z,12.32
2022-08-18T06:21:12.912Z,10.93
2022-08-18T06:23:49.366Z,11.20
2022-08-18T06:26:24.250Z,11.07
2022-08-18T06:29:03.157Z,12.00
2022-08-18T06:31:48.530Z,11.65
2022-08-18T06:36:51.978Z,10.77
2022-08-18T06:39:51.759Z,11.40
2022-08-18T06:42:30.681Z,12.00
2022-08-18T06:45:02.921Z,11.85
2022-08-18T06:47:59.607Z,12.48
2022-08-18T06:50:59.283Z,11.98
2022-08-18T06:53:52.713Z,10.95
2022-08-18T06:56:26.904Z,11.10
2022-08-18T06:58:55.524Z,11.57
2022-08-18T07:01:23.783Z,12.50
2022-08-18T07:03:55.124Z,11.82
2022-08-18T07:06:22.567Z,11.00
2022-08-18T07:08:51.530Z,10.60
2022-08-18T07:11:20.779Z,11.10
2022-08-18T07:14:16.849Z,10.77
2022-08-18T07:17:00.781Z,11.35
2022-08-18T07:19:29.619Z,10.45
2022-08-18T07:22:02.812Z,10.13
2022-08-18T07:24:32.330Z,10.55
2022-08-18T07:27:00.358Z,10.18
2022-08-18T07:29:28.556Z,10.00
2022-08-18T07:31:56.204Z,10.10
2022-08-18T07:34:38.519Z,9.55
2022-08-18T07:37:14.517Z,9.82
2022-08-18T07:40:05.829Z,8.48
2022-08-18T07:43:00.825Z,10.18
2022-08-18T07:45:34.548Z,9.23
2022-08-18T07:48:39.651Z,9.07
2022-08-18T07:51:46.294Z,9.90
2022-08-18T07:54:50.192Z,10.05
2022-08-18T07:57:35.402Z,10.82
2022-08-18T08:00:54.824Z,10.13
2022-08-18T08:03:26.146Z,9.38
2022-08-18T08:05:56.142Z,9.10
2022-08-18T08:08:38.077Z,9.48
2022-08-18T08:11:27.410Z,8.98
2022-08-18T08:14:10.365Z,9.55
2022-08-18T08:16:48.398Z,8.95
2022-08-18T08:19:49.304Z,8.85
2022-08-18T08:22:20.670Z,8.45
2022-08-18T08:25:22.350Z,9.10
2022-08-18T08:28:03.076Z,8.88
2022-08-18T08:30:31.582Z,8.63
2022-08-18T08:33:24.925Z,9.48
2022-08-18T08:35:56.771Z,9.63
2022-08-18T08:38:54.089Z,8.95
2022-08-18T08:41:28.131Z,9.40
2022-08-18T08:44:21.479Z,8.38
2022-08-18T08:46:53.144Z,8.77
2022-08-18T08:49:38.799Z,9.00
2022-08-18T08:52:18.895Z,9.02
2022-08-18T08:55:03.465Z,9.13
2022-08-18T08:57:34.891Z,8.52
2022-08-18T09:00:04.125Z,8.30
2022-08-18T09:02:48.085Z,7.93
2022-08-18T09:05:19.499Z,8.52
2022-08-18T09:07:50.602Z,8.32
2022-08-18T09:10:29.081Z,8.50
2022-08-18T09:13:45.080Z,8.60
2022-08-18T09:16:24.693Z,9.30
2022-08-18T09:19:15.865Z,9.17
2022-08-18T09:22:06.883Z,8.70
2022-08-18T09:25:00.846Z,8.70
2022-08-18T09:28:09.305Z,8.40
2022-08-18T09:30:55.181Z,8.80
2022-08-18T09:33:32.326Z,8.05
2022-08-18T09:36:10.337Z,9.05
2022-08-18T09:39:04.180Z,8.75
2022-08-18T09:41:35.646Z,8.82
2022-08-18T09:46:59.307Z,8.38
2022-08-18T09:49:26.920Z,8.50
2022-08-18T09:51:58.795Z,8.38
2022-08-18T09:54:31.189Z,9.02
2022-08-18T09:57:20.870Z,7.30
2022-08-18T09:59:49.269Z,8.25
2022-08-18T10:02:28.457Z,7.85
2022-08-18T10:05:21.280Z,7.30
2022-08-18T10:07:50.364Z,7.70
2022-08-18T10:11:01.479Z,7.53
2022-08-18T10:13:24.939Z,7.47
2022-08-18T10:16:10.709Z,7.20
2022-08-18T10:18:56.930Z,7.68
2022-08-18T10:24:35.949Z,7.68
2022-08-18T10:27:07.308Z,8.18
2022-08-18T10:29:51.750Z,7.70
2022-08-18T10:32:24.715Z,7.00
2022-08-18T10:34:53.336Z,7.30
2022-08-18T10:37:39.086Z,6.72
2022-08-18T10:40:09.395Z,6.90
2022-08-18T10:42:54.185Z,7.43
2022-08-18T10:45:27.619Z,7.85
2022-08-18T10:48:05.005Z,7.57
2022-08-18T10:50:47.157Z,8.52
2022-08-18T10:53:44.477Z,8.30
2022-08-18T10:56:22.582Z,8.90
2022-08-18T10:59:19.404Z,8.70
2022-08-18T11:02:07.040Z,8.32
2022-08-18T11:04:47.415Z,8.55
2022-08-18T11:07:30.890Z,9.15
2022-08-18T11:10:29.342Z,9.40
2022-08-18T11:13:35.583Z,9.15
2022-08-18T11:16:13.707Z,9.25
2022-08-18T11:18:49.456Z,9.02
2022-08-18T11:21:42.065Z,8.98
2022-08-18T11:24:16.216Z,8.82
2022-08-18T11:26:53.154Z,9.23
2022-08-18T11:29:29.109Z,8.70
2022-08-18T11:32:04.193Z,9.30
2022-08-18T11:34:51.970Z,8.77
2022-08-18T11:37:27.447Z,9.38
2022-08-18T11:39:58.085Z,8.88
2022-08-18T11:42:33.470Z,9.43
2022-08-18T11:45:17.751Z,10.25
2022-08-18T11:48:11.441Z,9.20
2022-08-18T11:50:54.491Z,8.90
2022-08-18T11:53:37.352Z,9.25
2022-08-18T11:56:14.541Z,8.60
2022-08-18T11:58:50.516Z,9.52
2022-08-18T12:01:40.870Z,9.32
2022-08-18T12:04:21.893Z,9.48
2022-08-18T12:07:00.440Z,9.13
2022-08-18T12:10:17.237Z,8.55
2022-08-18T12:12:28.131Z,9.02
2022-08-18T12:15:04.942Z,9.48
2022-08-18T12:17:41.782Z,8.77
2022-08-18T12:22:57.905Z,9.15
2022-08-18T12:25:25.904Z,8.38
2022-08-18T12:27:54.300Z,8.35
2022-08-18T12:30:21.676Z,8.10
2022-08-18T12:32:56.303Z,8.10
2022-08-18T12:35:32.684Z,8.40
2022-08-18T12:40:50.314Z,8.70
2022-08-18T12:43:20.060Z,7.95
2022-08-18T12:45:47.708Z,7.68
2022-08-18T12:48:15.364Z,8.38
2022-08-18T12:50:54.583Z,7.97
2022-08-18T12:53:30.171Z,7.95
2022-08-18T12:56:17.115Z,8.70
2022-08-18T12:58:47.624Z,8.68
2022-08-18T13:01:17.639Z,8.05
2022-08-18T13:03:52.585Z,7.37
2022-08-18T13:06:36.291Z,8.07
2022-08-18T13:09:16.263Z,7.97
2022-08-18T13:11:51.721Z,7.47
2022-08-18T13:14:20.572Z,7.22
2022-08-18T13:16:53.969Z,7.37
2022-08-18T13:19:22.558Z,8.40
2022-08-18T13:21:51.542Z,7.45
2022-08-18T13:24:21.940Z,7.60
2022-08-18T13:26:49.927Z,7.78
2022-08-18T13:29:19.356Z,7.10
2022-08-18T13:31:55.314Z,8.20
2022-08-18T13:34:29.708Z,7.37
2022-08-18T13:36:57.704Z,7.43
2022-08-18T13:39:25.506Z,6.85
2022-08-18T13:42:01.486Z,7.37
2022-08-18T13:44:53.033Z,7.00
2022-08-18T13:47:22.343Z,7.10
2022-08-18T13:49:52.577Z,6.90
2022-08-18T13:55:11.884Z,7.07
2022-08-18T13:57:41.820Z,7.28
2022-08-18T14:00:20.477Z,7.47
2022-08-18T14:02:58.931Z,7.10
2022-08-18T14:05:36.543Z,7.22
2022-08-18T14:08:19.473Z,7.22
2022-08-18T14:10:53.922Z,7.18
2022-08-18T14:13:24.561Z,6.90
2022-08-18T14:15:54.698Z,7.57
2022-08-18T14:18:29.118Z,7.75
2022-08-18T14:21:17.183Z,7.95
2022-08-18T14:24:14.341Z,7.25
2022-08-18T14:26:49.970Z,6.80
2022-08-18T14:29:45.730Z,7.55
2022-08-18T14:32:06.487Z,7.22
2022-08-18T14:34:34.576Z,7.30
2022-08-18T14:37:03.439Z,7.40
2022-08-18T14:39:30.853Z,8.05
2022-08-18T14:41:58.563Z,7.30
2022-08-18T14:44:31.832Z,6.45
2022-08-18T14:47:00.121Z,6.93
2022-08-18T14:49:28.205Z,6.93
2022-08-18T14:51:59.737Z,7.28
2022-08-18T14:54:29.962Z,6.93
2022-08-18T14:56:59.852Z,7.10
2022-08-18T14:59:30.920Z,7.68
2022-08-18T15:02:02.487Z,7.03
2022-08-18T15:04:29.856Z,6.35
2022-08-18T15:06:57.735Z,6.93
2022-08-18T15:09:27.289Z,8.00
2022-08-18T15:11:56.215Z,6.57
2022-08-18T15:14:32.942Z,7.15
2022-08-18T15:17:11.954Z,6.90
2022-08-18T15:20:00.641Z,8.18
2022-08-18T15:22:47.769Z,7.90
2022-08-18T15:25:34.283Z,7.05
2022-08-18T15:28:02.111Z,7.68
2022-08-18T15:30:29.564Z,7.87
2022-08-18T15:32:57.677Z,7.55
2022-08-18T15:35:25.322Z,7.50
2022-08-18T15:37:54.666Z,7.43
2022-08-18T15:40:31.093Z,7.50
2022-08-18T15:43:10.337Z,7.87
2022-08-18T15:45:43.301Z,7.12
2022-08-18T15:48:19.276Z,7.40
2022-08-18T15:50:50.978Z,7.70
2022-08-18T15:53:23.350Z,6.93
2022-08-18T15:55:50.801Z,7.22
2022-08-18T15:58:22.573Z,7.15
2022-08-18T16:00:54.501Z,6.97
2022-08-18T16:03:22.174Z,7.07
2022-08-18T16:05:52.609Z,7.93
2022-08-18T16:08:22.138Z,7.35
2022-08-18T16:10:49.843Z,6.65
2022-08-18T16:13:17.570Z,7.75
2022-08-18T16:15:46.872Z,7.32
2022-08-18T16:18:15.565Z,7.37
2022-08-18T16:20:43.481Z,6.53
2022-08-18T16:23:12.310Z,7.12
2022-08-18T16:25:40.997Z,7.43
2022-08-18T16:28:09.125Z,6.85
2022-08-18T16:30:36.504Z,7.82
2022-08-18T16:33:05.193Z,8.00
2022-08-18T16:35:32.861Z,7.28
2022-08-18T16:38:08.589Z,6.65
2022-08-18T16:40:36.582Z,6.87
2022-08-18T16:43:04.838Z,7.22
2022-08-18T16:45:33.654Z,7.28
2022-08-18T16:48:02.309Z,7.37
2022-08-18T16:50:30.012Z,7.43
2022-08-18T16:52:57.689Z,7.62
2022-08-18T16:55:25.350Z,7.50
2022-08-18T16:58:15.335Z,7.60
2022-08-18T17:01:01.926Z,8.05
2022-08-18T17:03:48.068Z,7.07
2022-08-18T17:06:17.426Z,7.32
2022-08-18T17:08:44.806Z,8.40
2022-08-18T17:11:17.790Z,7.30
2022-08-18T17:13:46.213Z,7.07
2022-08-18T17:16:13.656Z,7.80
2022-08-18T17:18:41.316Z,7.80
2022-08-18T17:21:10.682Z,6.60
2022-08-18T17:23:39.177Z,7.40
2022-08-18T17:26:08.140Z,7.65
2022-08-18T17:28:50.148Z,7.45
2022-08-18T17:31:21.251Z,7.60
2022-08-18T17:33:49.346Z,8.07
2022-08-18T17:36:23.350Z,7.57
2022-08-18T17:38:57.312Z,7.53
2022-08-18T17:41:25.436Z,7.10
2022-08-18T17:43:55.747Z,7.20
2022-08-18T17:46:30.208Z,7.40
2022-08-18T17:49:22.526Z,8.13
2022-08-18T17:51:55.132Z,7.07
2022-08-18T17:54:39.293Z,7.60
2022-08-18T17:57:15.264Z,7.90
2022-08-18T18:00:06.355Z,7.53
2022-08-18T18:02:40.134Z,8.07
2022-08-18T18:05:11.148Z,7.53
2022-08-18T18:07:39.655Z,8.02
2022-08-18T18:10:10.883Z,7.85
2022-08-18T18:12:38.821Z,8.30
2022-08-18T18:15:12.205Z,7.78
2022-08-18T18:17:41.263Z,7.32
2022-08-18T18:20:16.464Z,7.75
2022-08-18T18:22:44.985Z,7.75
2022-08-18T18:25:12.726Z,7.90
2022-08-18T18:27:41.840Z,8.20
2022-08-18T18:30:19.248Z,7.60
2022-08-18T18:33:03.468Z,7.37
2022-08-18T18:35:34.153Z,7.30
2022-08-18T18:38:07.226Z,7.40
2022-08-18T18:40:39.897Z,7.87
2022-08-18T18:43:22.295Z,7.18
2022-08-18T18:46:18.585Z,7.65
2022-08-18T18:48:56.607Z,9.20
2022-08-18T18:51:33.263Z,7.40
2022-08-18T18:54:49.982Z,7.43
2022-08-18T18:57:31.908Z,7.68
2022-08-18T19:00:19.637Z,8.50
2022-08-18T19:03:28.880Z,8.38
2022-08-18T19:06:30.183Z,9.40
2022-08-18T19:09:04.085Z,9.68
2022-08-18T19:11:43.077Z,9.15
2022-08-18T19:14:14.808Z,9.25
2022-08-18T19:17:04.494Z,9.32
2022-08-18T19:19:39.338Z,10.63
2022-08-18T19:22:38.436Z,9.87
2022-08-18T19:25:13.479Z,8.98
2022-08-18T19:27:45.594Z,9.47
2022-08-18T19:30:14.236Z,9.65
2022-08-18T19:32:44.431Z,9.23
2022-08-18T19:35:23.065Z,9.70
2022-08-18T19:38:19.141Z,9.43
2022-08-18T19:40:49.270Z,8.77
2022-08-18T19:43:42.440Z,9.95
2022-08-18T19:46:27.613Z,9.13
2022-08-18T19:49:05.398Z,9.38
2022-08-18T19:51:40.773Z,9.73
2022-08-18T19:55:00.230Z,10.80
2022-08-18T19:57:43.286Z,9.63
2022-08-18T20:00:12.222Z,9.02
2022-08-18T20:03:04.025Z,8.73
2022-08-18T20:05:36.365Z,10.68
2022-08-18T20:08:28.624Z,10.63
2022-08-18T20:11:21.366Z,8.82
2022-08-18T20:14:13.285Z,9.82
2022-08-18T20:16:44.915Z,9.88
2022-08-18T20:19:37.359Z,9.82
2022-08-18T20:22:16.004Z,9.25
2022-08-18T20:24:50.460Z,8.95
2022-08-18T20:27:30.225Z,9.95
2022-08-18T20:30:21.304Z,10.00
2022-08-18T20:33:13.901Z,9.60
2022-08-18T20:36:04.136Z,9.23
2022-08-18T20:38:36.289Z,9.35
2022-08-18T20:41:19.836Z,10.20
2022-08-18T20:43:50.269Z,10.23
2022-08-18T20:46:51.638Z,9.90
2022-08-18T20:49:43.626Z,9.50
2022-08-18T20:52:37.284Z,10.02
2022-08-18T20:55:20.057Z,9.75
2022-08-18T20:57:47.483Z,9.75
2022-08-18T21:00:26.915Z,9.63
2022-08-18T21:02:59.107Z,9.35
2022-08-18T21:05:39.128Z,10.02
2022-08-18T21:08:19.711Z,11.00
2022-08-18T21:11:08.367Z,10.85
2022-08-18T21:13:42.454Z,9.93
2022-08-18T21:16:12.132Z,9.63
2022-08-18T21:18:40.892Z,10.20
2022-08-18T21:21:14.437Z,10.15
2022-08-18T21:23:51.091Z,10.35
2022-08-18T21:26:18.480Z,10.07
2022-08-18T21:28:47.979Z,9.45
2022-08-18T21:31:43.681Z,10.35
2022-08-18T21:34:18.547Z,11.38
2022-08-18T21:36:54.091Z,9.52
2022-08-18T21:39:21.842Z,9.90
2022-08-18T21:41:54.414Z,10.65
2022-08-18T21:44:32.849Z,11.38
2022-08-18T21:47:05.698Z,10.40
2022-08-18T21:49:33.929Z,10.65
2022-08-18T21:52:01.590Z,9.10
2022-08-18T21:54:30.425Z,9.95
2022-08-18T21:57:18.345Z,10.85
2022-08-18T22:00:13.547Z,10.60
2022-08-18T22:05:10.445Z,10.18
2022-08-18T22:07:46.006Z,9.88
2022-08-18T22:10:47.668Z,9.52
2022-08-18T22:13:39.085Z,8.63
2022-08-18T22:16:30.799Z,9.80
2022-08-18T22:19:06.392Z,9.23
2022-08-18T22:21:47.022Z,10.73
2022-08-18T22:24:21.929Z,10.77
2022-08-18T22:27:08.594Z,10.55
2022-08-18T22:29:51.173Z,10.25
2022-08-18T22:32:21.366Z,9.90
2022-08-18T22:34:50.264Z,10.05
2022-08-18T22:37:25.579Z,9.77
2022-08-18T22:39:58.383Z,10.27
2022-08-18T22:42:28.166Z,10.20
2022-08-18T22:44:59.086Z,10.75
2022-08-18T22:47:30.440Z,10.20
2022-08-18T22:50:01.875Z,10.35
2022-08-18T22:52:31.254Z,9.80
2022-08-18T22:54:59.314Z,10.25
2022-08-18T22:57:34.579Z,10.55
2022-08-18T23:00:12.582Z,10.25
2022-08-18T23:02:40.602Z,10.02
2022-08-18T23:05:08.245Z,10.32
2022-08-18T23:07:35.712Z,10.32
2022-08-18T23:10:08.268Z,11.35
2022-08-18T23:12:43.025Z,10.52
2022-08-18T23:15:11.585Z,10.60
2022-08-18T23:17:40.629Z,10.07
2022-08-18T23:20:11.348Z,11.02
2022-08-18T23:22:39.766Z,9.88
2022-08-18T23:25:08.997Z,10.90
2022-08-18T23:27:36.833Z,11.15
2022-08-18T23:30:05.013Z,10.18
2022-08-18T23:32:33.386Z,10.07
2022-08-18T23:35:00.876Z,10.68
2022-08-18T23:37:28.653Z,10.65
2022-08-18T23:39:56.184Z,10.80
2022-08-18T23:42:24.827Z,10.65
2022-08-18T23:44:52.474Z,10.77
2022-08-18T23:47:21.108Z,10.90
2022-08-18T23:49:48.619Z,11.38
2022-08-18T23:52:18.377Z,10.32
2022-08-18T23:54:45.763Z,11.10
2022-08-18T23:57:14.122Z,11.07
2022-08-18T23:59:41.760Z,10.13
